Time;durP1;ratioP1;P1;durP2;ratioP2;P2;SDS_P1;SDS_P2;PMS_P1;PMS_P2;Temp;Humidity;BMP_temperature;BMP_pressure;BME280_temperature;BME280_humidity;BME280_pressure;Samples;Min_cycle;Max_cycle;Signal;HPM_P1;HPM_P2
2022/07/14 00:00:13;;;;;;;9.20;6.57;;;19.30;99.90;;;;;;5039619;28;20229;-71
2022/07/14 00:02:39;;;;;;;9.23;6.00;;;19.30;99.90;;;;;;5032989;28;20207;-71
2022/07/14 00:05:05;;;;;;;6.53;5.77;;;19.20;99.90;;;;;;5044400;28;20640;-71
2022/07/14 00:07:30;;;;;;;6.80;6.20;;;19.20;99.90;;;;;;5051592;28;20214;-71
2022/07/14 00:09:56;;;;;;;7.23;6.53;;;19.20;99.90;;;;;;5043298;28;20171;-71
2022/07/14 00:12:21;;;;;;;7.43;6.73;;;19.30;99.90;;;;;;5033010;28;20175;-71
2022/07/14 00:14:47;;;;;;;6.83;5.83;;;19.30;99.90;;;;;;5040709;28;20175;-71
2022/07/14 00:17:12;;;;;;;7.00;6.17;;;19.40;99.90;;;;;;5050267;28;20234;-71
2022/07/14 00:19:38;;;;;;;6.97;6.30;;;19.40;99.90;;;;;;5032930;28;20276;-71
2022/07/14 00:22:04;;;;;;;8.33;6.93;;;19.40;99.90;;;;;;5033324;28;20190;-71
2022/07/14 00:24:30;;;;;;;10.43;6.70;;;19.40;99.90;;;;;;5052269;28;20181;-71
2022/07/14 00:26:55;;;;;;;7.87;6.70;;;19.40;99.90;;;;;;5048546;28;20583;-71
2022/07/14 00:29:21;;;;;;;8.10;6.53;;;19.30;99.90;;;;;;5031441;28;20179;-71
2022/07/14 00:31:47;;;;;;;10.73;7.10;;;19.30;99.90;;;;;;5033211;28;20198;-71
2022/07/14 00:34:13;;;;;;;9.17;6.33;;;19.30;99.90;;;;;;5052401;28;20175;-71
2022/07/14 00:36:38;;;;;;;9.00;6.10;;;19.40;99.90;;;;;;5052163;28;20280;-71
2022/07/14 00:39:04;;;;;;;9.63;6.53;;;19.40;99.90;;;;;;5033707;28;20190;-71
2022/07/14 00:41:30;;;;;;;14.67;6.77;;;19.30;99.90;;;;;;5032617;28;20180;-71
2022/07/14 00:43:55;;;;;;;7.00;6.40;;;19.30;99.90;;;;;;5047816;28;20182;-71
2022/07/14 00:46:21;;;;;;;14.73;6.60;;;19.40;99.90;;;;;;5052103;28;20634;-71
2022/07/14 00:48:47;;;;;;;8.33;6.10;;;19.40;99.90;;;;;;5036869;28;20185;-71
2022/07/14 00:51:22;;;;;;;10.43;6.40;;;19.40;99.90;;;;;;5032491;28;20171;-71
2022/07/14 00:53:52;;;;;;;6.03;5.43;;;19.30;99.90;;;;;;5033276;28;20262;-71
2022/07/14 00:56:17;;;;;;;10.43;6.13;;;19.30;99.90;;;;;;5032266;28;20285;-71
2022/07/14 00:58:43;;;;;;;10.27;6.43;;;19.30;99.90;;;;;;5045138;28;20190;-71
2022/07/14 01:01:09;;;;;;;10.67;6.27;;;19.20;99.90;;;;;;5052150;28;20179;-71
2022/07/14 01:03:35;;;;;;;8.77;6.03;;;19.20;99.90;;;;;;5040244;28;20597;-71
2022/07/14 01:06:01;;;;;;;10.63;6.00;;;19.10;99.90;;;;;;5030819;28;20249;-71
2022/07/14 01:08:27;;;;;;;8.10;5.80;;;19.20;99.90;;;;;;5041240;28;20249;-71
2022/07/14 01:10:52;;;;;;;8.67;5.40;;;19.20;99.90;;;;;;5052021;28;20573;-71
2022/07/14 01:13:18;;;;;;;15.43;6.17;;;19.20;99.90;;;;;;5043924;28;20184;-71
2022/07/14 01:15:44;;;;;;;13.10;6.90;;;19.30;99.90;;;;;;5035187;28;20218;-71
2022/07/14 01:18:09;;;;;;;10.33;6.10;;;19.30;99.90;;;;;;5051964;28;20219;-71
2022/07/14 01:20:35;;;;;;;11.43;6.10;;;19.30;99.90;;;;;;5048392;28;20266;-71
2022/07/14 01:23:01;;;;;;;8.57;6.17;;;19.20;99.90;;;;;;5031897;28;20179;-71
2022/07/14 01:25:27;;;;;;;9.53;6.23;;;19.10;99.90;;;;;;5032635;28;20576;-71
2022/07/14 01:27:53;;;;;;;8.00;6.47;;;19.00;99.90;;;;;;5051664;28;20203;-71
2022/07/14 01:30:18;;;;;;;15.60;6.83;;;19.00;99.90;;;;;;5051564;28;20174;-71
2022/07/14 01:32:45;;;;;;;12.30;7.13;;;19.10;99.90;;;;;;5031824;28;20278;-71
2022/07/14 01:35:10;;;;;;;9.73;7.67;;;19.10;99.90;;;;;;5031485;28;20167;-71
2022/07/14 01:37:36;;;;;;;19.00;7.30;;;19.10;99.90;;;;;;5049068;28;20729;-71
2022/07/14 01:40:03;;;;;;;15.27;8.07;;;19.00;99.90;;;;;;5051651;28;20178;-72
2022/07/14 01:42:28;;;;;;;10.43;6.33;;;19.00;99.90;;;;;;5049791;28;20194;-72
2022/07/14 01:44:54;;;;;;;7.20;6.43;;;18.90;99.90;;;;;;5052876;28;20179;-71
2022/07/14 01:47:20;;;;;;;10.87;6.63;;;18.70;99.90;;;;;;5052085;28;20263;-71
2022/07/14 01:49:45;;;;;;;14.23;7.47;;;18.70;99.90;;;;;;5054588;28;20182;-72
2022/07/14 01:52:11;;;;;;;10.53;7.20;;;18.60;99.90;;;;;;5042099;28;20183;-71
2022/07/14 01:54:36;;;;;;;13.50;6.90;;;18.50;99.90;;;;;;5034115;28;20692;-71
2022/07/14 01:57:02;;;;;;;12.30;7.00;;;18.40;99.90;;;;;;5045433;28;20199;-72
2022/07/14 01:59:28;;;;;;;9.07;7.30;;;18.40;99.90;;;;;;5060898;28;20543;-72
2022/07/14 02:01:54;;;;;;;10.77;7.13;;;18.30;99.90;;;;;;5057384;28;20240;-71
2022/07/14 02:04:20;;;;;;;11.80;7.30;;;18.30;99.90;;;;;;5053978;28;20251;-72
2022/07/14 02:06:49;;;;;;;15.13;8.13;;;18.40;99.90;;;;;;5038083;28;20306;-71
2022/07/14 02:09:15;;;;;;;13.83;6.97;;;18.40;99.90;;;;;;5034214;28;20205;-71
2022/07/14 02:14:25;;;;;;;12.63;7.17;;;18.40;99.90;;;;;;5051073;28;20202;-71
2022/07/14 02:16:51;;;;;;;16.50;6.83;;;18.30;99.90;;;;;;5033859;28;20207;-71
2022/07/14 02:19:26;;;;;;;10.13;6.87;;;18.40;99.90;;;;;;5054918;28;20183;-71
2022/07/14 02:21:53;;;;;;;8.47;7.63;;;18.40;99.90;;;;;;5053917;28;20189;-73
2022/07/14 02:24:20;;;;;;;14.20;7.53;;;18.50;99.90;;;;;;5035023;28;20179;-71
2022/07/14 02:26:48;;;;;;;11.03;7.43;;;18.50;99.90;;;;;;5034864;28;20218;-71
2022/07/14 02:29:14;;;;;;;11.40;7.10;;;18.50;99.90;;;;;;5053026;28;20519;-71
2022/07/14 02:31:39;;;;;;;14.47;8.63;;;18.50;99.90;;;;;;5054929;28;20178;-71
2022/07/14 02:34:05;;;;;;;11.80;7.30;;;18.40;99.90;;;;;;5041762;28;20187;-70
2022/07/14 02:36:32;;;;;;;14.03;7.20;;;18.40;99.90;;;;;;5014974;28;20208;-70
2022/07/14 02:38:58;;;;;;;14.00;7.10;;;18.30;99.90;;;;;;5013866;28;20203;-70
2022/07/14 02:41:23;;;;;;;8.47;7.03;;;18.30;99.90;;;;;;5041863;28;20182;-70
2022/07/14 02:43:49;;;;;;;11.73;6.87;;;18.30;99.90;;;;;;5054460;28;20519;-70
2022/07/14 02:46:15;;;;;;;13.03;6.97;;;18.30;99.90;;;;;;5042895;28;20203;-71
2022/07/14 02:48:41;;;;;;;16.33;7.23;;;18.20;99.90;;;;;;5033114;28;20214;-71
2022/07/14 02:51:09;;;;;;;8.53;7.20;;;18.10;99.90;;;;;;5044120;28;20178;-69
2022/07/14 02:53:36;;;;;;;9.43;8.00;;;18.10;99.90;;;;;;5054196;28;20178;-70
2022/07/14 02:56:03;;;;;;;11.53;6.23;;;18.00;99.90;;;;;;5045977;28;20583;-70
2022/07/14 02:58:29;;;;;;;12.80;8.33;;;18.00;99.90;;;;;;5034418;28;20164;-70
2022/07/14 03:00:55;;;;;;;9.90;7.13;;;18.00;99.90;;;;;;5041014;28;20175;-70
2022/07/14 03:03:22;;;;;;;9.13;8.23;;;18.00;99.90;;;;;;5053117;28;20542;-71
2022/07/14 03:05:47;;;;;;;8.43;7.73;;;17.90;99.90;;;;;;5052595;28;20191;-71
2022/07/14 03:08:13;;;;;;;11.20;7.77;;;17.90;99.90;;;;;;5053037;28;20211;-70
2022/07/14 03:10:39;;;;;;;15.87;7.10;;;17.90;99.90;;;;;;5052201;28;20612;-70
2022/07/14 03:13:06;;;;;;;12.47;6.77;;;17.90;99.90;;;;;;5054157;28;20167;-70
2022/07/14 03:15:32;;;;;;;11.87;7.23;;;17.90;99.90;;;;;;5052039;28;20194;-70
2022/07/14 03:17:58;;;;;;;13.23;6.60;;;17.80;99.90;;;;;;5034232;28;20180;-71
2022/07/14 03:20:24;;;;;;;7.77;6.77;;;17.80;99.90;;;;;;5037704;28;20258;-71
2022/07/14 03:22:49;;;;;;;11.93;6.80;;;17.80;99.90;;;;;;5014194;28;20634;-72
2022/07/14 03:25:15;;;;;;;16.30;7.27;;;17.90;99.90;;;;;;5017955;28;20183;-71
2022/07/14 03:27:41;;;;;;;11.23;7.47;;;17.90;99.90;;;;;;5053775;28;20194;-70
2022/07/14 03:30:08;;;;;;;8.97;6.63;;;17.90;99.90;;;;;;5053561;28;20167;-70
2022/07/14 03:32:34;;;;;;;11.80;8.10;;;18.00;99.90;;;;;;5013923;28;20168;-70
2022/07/14 03:35:03;;;;;;;7.30;6.60;;;18.00;99.90;;;;;;5038236;28;20542;-70
2022/07/14 03:37:29;;;;;;;15.07;7.27;;;18.00;99.90;;;;;;5053421;28;20206;-70
2022/07/14 03:39:55;;;;;;;16.07;7.47;;;18.00;99.90;;;;;;5042527;28;20183;-70
2022/07/14 03:42:21;;;;;;;9.80;6.93;;;17.90;99.90;;;;;;5032772;28;20594;-71
2022/07/14 03:44:48;;;;;;;13.17;7.77;;;17.90;99.90;;;;;;5042074;28;20179;-70
2022/07/14 03:47:14;;;;;;;11.67;7.43;;;17.80;99.90;;;;;;5052022;28;20382;-70
2022/07/14 03:49:39;;;;;;;13.47;8.00;;;17.70;99.90;;;;;;5043486;28;20219;-70
2022/07/14 03:52:06;;;;;;;15.33;7.90;;;17.70;99.90;;;;;;5033380;28;20225;-71
2022/07/14 03:54:31;;;;;;;10.60;6.90;;;17.70;99.90;;;;;;5038343;28;20534;-72
2022/07/14 03:56:57;;;;;;;11.27;7.50;;;17.70;99.90;;;;;;5051912;28;20295;-70
2022/07/14 03:59:22;;;;;;;14.03;8.43;;;17.70;99.90;;;;;;5051345;28;20186;-70
2022/07/14 04:01:48;;;;;;;12.50;7.73;;;17.70;99.90;;;;;;5053235;28;20236;-70
2022/07/14 04:04:14;;;;;;;11.97;7.83;;;17.80;99.90;;;;;;5050685;28;20171;-69
2022/07/14 04:06:39;;;;;;;13.67;7.70;;;17.70;99.90;;;;;;5032669;28;20226;-70
2022/07/14 04:09:06;;;;;;;18.00;8.40;;;17.70;99.90;;;;;;5033070;28;20649;-71
2022/07/14 04:11:32;;;;;;;10.27;7.40;;;17.70;99.90;;;;;;5011820;28;20184;-70
2022/07/14 04:13:58;;;;;;;12.27;8.63;;;17.70;99.90;;;;;;5012882;28;20169;-70
2022/07/14 04:16:23;;;;;;;11.93;8.10;;;17.70;99.90;;;;;;5049771;28;20194;-70
2022/07/14 04:18:49;;;;;;;12.50;7.90;;;17.60;99.90;;;;;;5037184;28;20187;-70
2022/07/14 04:21:14;;;;;;;10.07;8.30;;;17.70;99.90;;;;;;5032457;28;20176;-70
2022/07/14 04:23:40;;;;;;;16.73;8.00;;;17.70;99.90;;;;;;5044149;28;20182;-71
2022/07/14 04:26:06;;;;;;;16.47;8.07;;;17.80;99.90;;;;;;5051281;28;20271;-70
2022/07/14 04:28:32;;;;;;;13.77;8.17;;;17.80;99.90;;;;;;5040754;28;20697;-71
2022/07/14 04:30:58;;;;;;;10.37;7.37;;;17.80;99.90;;;;;;5032809;28;20298;-71
2022/07/14 04:33:24;;;;;;;11.57;7.13;;;17.70;99.90;;;;;;5032801;28;20206;-71
2022/07/14 04:35:49;;;;;;;12.40;8.30;;;17.70;99.90;;;;;;5061504;22;20206;-67
2022/07/14 04:38:15;;;;;;;12.97;8.00;;;17.70;99.90;;;;;;5052679;28;20179;-67
2022/07/14 04:40:48;;;;;;;13.93;8.73;;;17.50;99.90;;;;;;5048674;28;20180;-68
2022/07/14 04:43:14;;;;;;;21.00;8.10;;;17.50;99.90;;;;;;5032634;28;20179;-67
2022/07/14 04:45:39;;;;;;;14.23;7.77;;;17.40;99.90;;;;;;5034832;28;20593;-67
2022/07/14 04:48:05;;;;;;;14.57;7.97;;;17.30;99.90;;;;;;5052401;28;20207;-68
2022/07/14 04:53:14;;;;;;;12.60;8.43;;;17.20;99.90;;;;;;5032523;28;20174;-66
2022/07/14 04:55:40;;;;;;;9.43;8.43;;;17.30;99.90;;;;;;5033005;28;20550;-67
2022/07/14 04:58:06;;;;;;;21.43;8.30;;;17.30;99.90;;;;;;5032372;28;20250;-67
2022/07/14 05:00:31;;;;;;;12.23;8.80;;;17.20;99.90;;;;;;5033638;28;20573;-67
2022/07/14 05:02:57;;;;;;;9.73;7.43;;;17.30;99.90;;;;;;5032155;28;20175;-67
2022/07/14 05:05:22;;;;;;;18.87;8.57;;;17.30;99.90;;;;;;5032114;28;20508;-66
2022/07/14 05:07:48;;;;;;;12.57;7.80;;;17.40;99.90;;;;;;5052119;28;20297;-67
2022/07/14 05:10:14;;;;;;;15.27;7.80;;;17.40;99.90;;;;;;5052191;28;20532;-67
2022/07/14 05:12:39;;;;;;;16.20;8.10;;;17.50;99.90;;;;;;5032734;28;20180;-67
2022/07/14 05:15:06;;;;;;;10.33;7.23;;;17.50;99.90;;;;;;5031840;28;20183;-67
2022/07/14 05:17:32;;;;;;;15.07;8.00;;;17.50;99.90;;;;;;5047514;28;20226;-67
2022/07/14 05:19:57;;;;;;;17.00;7.77;;;17.60;99.90;;;;;;5051921;28;20578;-66
2022/07/14 05:22:24;;;;;;;17.60;9.03;;;17.70;99.90;;;;;;5036060;28;20212;-67
2022/07/14 05:24:51;;;;;;;12.03;7.43;;;17.80;99.90;;;;;;5031386;28;20195;-67
2022/07/14 05:27:16;;;;;;;10.90;7.10;;;17.90;99.90;;;;;;5045337;28;20211;-67
2022/07/14 05:29:42;;;;;;;11.47;9.00;;;18.10;99.90;;;;;;5041698;28;20183;-66
2022/07/14 05:32:08;;;;;;;10.77;7.13;;;18.30;99.90;;;;;;5029838;28;20248;-67
2022/07/14 05:34:43;;;;;;;11.50;8.57;;;18.40;99.90;;;;;;5039048;28;20571;-67
2022/07/14 05:37:08;;;;;;;16.13;8.37;;;18.50;99.90;;;;;;5051479;28;20262;-68
2022/07/14 05:39:34;;;;;;;11.03;7.97;;;18.70;99.90;;;;;;5043850;28;20547;-66
2022/07/14 05:41:59;;;;;;;11.30;7.53;;;18.70;99.90;;;;;;5031684;28;20179;-67
2022/07/14 05:44:25;;;;;;;15.10;8.03;;;18.80;99.90;;;;;;5036697;28;20709;-67
2022/07/14 05:46:51;;;;;;;12.40;7.40;;;18.90;99.90;;;;;;5051237;28;20198;-67
2022/07/14 05:49:16;;;;;;;12.43;7.17;;;18.90;99.90;;;;;;5047592;28;20298;-67
2022/07/14 05:51:42;;;;;;;16.87;8.00;;;19.10;99.90;;;;;;5031461;28;20171;-67
2022/07/14 05:54:08;;;;;;;15.87;8.40;;;19.20;99.90;;;;;;5033155;28;20163;-67
2022/07/14 05:56:33;;;;;;;12.90;7.80;;;19.30;99.90;;;;;;5050970;28;20197;-67
2022/07/14 05:58:59;;;;;;;12.90;8.23;;;19.50;99.90;;;;;;5031356;28;20176;-67
2022/07/14 06:01:25;;;;;;;15.37;7.93;;;19.60;99.90;;;;;;5031344;28;20667;-67
2022/07/14 06:03:56;;;;;;;13.77;8.53;;;19.70;99.90;;;;;;5049133;28;20232;-67
2022/07/14 06:06:22;;;;;;;14.17;7.63;;;19.70;99.90;;;;;;5051288;28;20265;-67
2022/07/14 06:08:49;;;;;;;15.73;8.77;;;19.70;99.90;;;;;;5033504;28;20592;-67
2022/07/14 06:11:15;;;;;;;12.03;7.40;;;19.50;99.90;;;;;;5031493;28;20175;-67
2022/07/14 06:13:42;;;;;;;12.57;8.20;;;19.50;99.90;;;;;;5035793;28;20252;-67
2022/07/14 06:16:08;;;;;;;13.03;8.80;;;19.40;99.90;;;;;;5033250;28;20242;-67
2022/07/14 06:18:34;;;;;;;11.63;7.83;;;19.40;99.90;;;;;;5050987;28;20762;-67
2022/07/14 06:20:59;;;;;;;16.53;7.97;;;19.50;99.90;;;;;;5049809;28;20257;-67
2022/07/14 06:23:25;;;;;;;13.43;7.53;;;19.80;99.90;;;;;;5033087;28;20191;-67
2022/07/14 06:25:51;;;;;;;13.27;7.80;;;20.00;99.90;;;;;;5050939;28;20301;-67
2022/07/14 06:28:17;;;;;;;10.33;7.53;;;20.10;99.90;;;;;;5031596;28;20610;-67
2022/07/14 06:30:43;;;;;;;17.17;9.60;;;20.20;99.90;;;;;;5030820;28;20175;-66
2022/07/14 06:33:09;;;;;;;11.90;7.47;;;20.30;99.90;;;;;;5048405;28;20175;-67
2022/07/14 06:35:38;;;;;;;20.07;7.70;;;20.30;99.90;;;;;;5050485;28;20178;-67
2022/07/14 06:38:03;;;;;;;13.90;7.07;;;20.40;99.90;;;;;;5038003;28;20202;-66
2022/07/14 06:40:29;;;;;;;11.60;10.00;;;20.50;99.90;;;;;;5030875;28;20167;-67
2022/07/14 06:42:54;;;;;;;14.10;8.40;;;20.50;99.90;;;;;;5033091;28;20171;-67
2022/07/14 06:45:20;;;;;;;15.83;8.50;;;20.60;99.90;;;;;;5054621;28;20496;-67
2022/07/14 06:47:46;;;;;;;14.77;8.43;;;20.70;99.90;;;;;;5042202;28;20269;-67
2022/07/14 06:50:12;;;;;;;12.13;7.70;;;20.90;99.90;;;;;;5034686;28;20254;-67
2022/07/14 06:52:37;;;;;;;14.40;9.87;;;21.10;99.90;;;;;;5042678;28;20210;-67
2022/07/14 06:55:05;;;;;;;11.30;8.93;;;21.20;99.90;;;;;;5034797;28;20183;-67
2022/07/14 06:57:30;;;;;;;11.57;8.20;;;21.40;99.90;;;;;;5034053;28;20199;-67
2022/07/14 06:59:56;;;;;;;11.20;8.60;;;21.30;99.90;;;;;;5034493;28;20263;-67
2022/07/14 07:02:22;;;;;;;15.38;8.65;;;21.40;99.90;;;;;;5034252;28;20278;-67
2022/07/14 07:06:43;;;;;;;9.70;7.63;;;21.50;99.90;;;;;;5033941;28;20175;-67
2022/07/14 07:07:35;;;;;;;13.60;7.40;;;21.50;99.90;;;;;;5033948;28;20219;-66
2022/07/14 07:10:00;;;;;;;9.32;6.93;;;21.70;99.90;;;;;;5034307;28;20260;-66
2022/07/14 07:12:26;;;;;;;18.08;8.73;;;22.00;99.90;;;;;;5034504;28;20270;-66
2022/07/14 07:14:52;;;;;;;16.20;7.83;;;22.10;99.90;;;;;;5033705;28;20168;-66
2022/07/14 07:17:17;;;;;;;10.43;7.47;;;22.00;99.90;;;;;;5045192;28;20274;-67
2022/07/14 07:19:43;;;;;;;12.75;6.93;;;22.00;99.90;;;;;;5046098;28;20259;-67
2022/07/14 07:22:08;;;;;;;12.50;6.18;;;22.10;99.90;;;;;;5047977;28;20698;-66
2022/07/14 07:24:34;;;;;;;16.55;6.95;;;22.20;99.90;;;;;;5047382;28;20179;-67
2022/07/14 07:26:59;;;;;;;13.88;7.22;;;22.30;99.90;;;;;;5033783;28;20684;-67
2022/07/14 07:29:25;;;;;;;8.07;6.72;;;22.50;99.90;;;;;;5037274;28;20186;-66
2022/07/14 07:31:51;;;;;;;13.02;7.82;;;22.40;99.90;;;;;;5053819;28;20171;-66
2022/07/14 07:34:16;;;;;;;14.52;7.97;;;22.40;99.90;;;;;;5051779;28;20190;-67
2022/07/14 07:36:42;;;;;;;11.77;8.50;;;22.60;99.90;;;;;;5053292;28;20217;-67
2022/07/14 07:39:07;;;;;;;11.25;6.07;;;23.30;99.90;;;;;;5053027;28;20171;-66
2022/07/14 07:41:34;;;;;;;8.85;6.10;;;23.90;99.90;;;;;;5033587;28;20163;-67
2022/07/14 07:43:59;;;;;;;13.05;6.28;;;24.50;99.90;;;;;;5033378;28;20225;-67
2022/07/14 07:46:26;;;;;;;14.32;6.00;;;24.70;99.90;;;;;;5051967;28;20619;-66
2022/07/14 07:48:52;;;;;;;12.57;6.53;;;24.80;99.90;;;;;;5048704;28;20199;-67
2022/07/14 07:51:17;;;;;;;7.78;5.40;;;25.30;99.90;;;;;;5033457;28;20163;-66
2022/07/14 07:53:43;;;;;;;12.55;5.85;;;25.70;99.90;;;;;;5035365;28;20633;-67
2022/07/14 07:56:09;;;;;;;8.40;5.25;;;25.70;99.90;;;;;;5052546;28;20194;-66
2022/07/14 07:58:35;;;;;;;10.95;5.30;;;25.50;99.90;;;;;;5051930;28;20642;-67
2022/07/14 08:01:01;;;;;;;11.50;5.30;;;25.30;99.90;;;;;;5033176;28;20225;-66
2022/07/14 08:03:27;;;;;;;8.45;4.78;;;24.80;99.90;;;;;;5032813;28;20266;-66
2022/07/14 08:05:52;;;;;;;10.73;5.05;;;24.60;99.90;;;;;;5052206;28;20606;-66
2022/07/14 08:08:18;;;;;;;6.22;4.32;;;24.50;99.90;;;;;;5052965;28;20214;-67
2022/07/14 08:10:44;;;;;;;8.40;4.75;;;24.50;99.90;;;;;;5035021;28;20179;-66
2022/07/14 08:13:10;;;;;;;7.32;4.88;;;24.70;99.90;;;;;;5031779;28;20664;-67
2022/07/14 08:15:36;;;;;;;13.02;4.60;;;24.80;99.90;;;;;;5048377;28;20186;-66
2022/07/14 08:18:03;;;;;;;12.80;5.68;;;25.10;99.90;;;;;;5039116;28;20182;-67
2022/07/14 08:20:29;;;;;;;4.63;4.00;;;25.40;99.90;;;;;;5032775;28;20179;-66
2022/07/14 08:22:55;;;;;;;6.70;3.70;;;25.50;99.90;;;;;;5044502;28;20586;-67
2022/07/14 08:25:22;;;;;;;9.50;4.68;;;25.60;99.90;;;;;;5052380;28;20174;-67
2022/07/14 08:27:47;;;;;;;12.05;4.68;;;26.10;99.90;;;;;;5041757;28;20719;-67
2022/07/14 08:30:14;;;;;;;4.20;3.80;;;26.50;99.90;;;;;;5032758;28;20207;-67
2022/07/14 08:32:43;;;;;;;8.25;4.38;;;26.70;99.90;;;;;;5038091;28;20260;-67
2022/07/14 08:35:11;;;;;;;8.82;4.32;;;27.00;99.90;;;;;;5034978;28;20229;-67
2022/07/14 08:37:37;;;;;;;8.07;4.50;;;27.20;99.90;;;;;;5032218;28;20218;-66
2022/07/14 08:40:06;;;;;;;8.65;3.88;;;27.00;99.90;;;;;;5032598;28;20225;-66
2022/07/14 08:42:32;;;;;;;7.18;4.60;;;26.90;99.90;;;;;;5038309;28;20671;-66
2022/07/14 08:44:58;;;;;;;7.63;4.65;;;26.20;99.90;;;;;;5051958;28;20679;-66
2022/07/14 08:47:25;;;;;;;7.38;4.10;;;26.20;99.90;;;;;;5047628;28;20199;-66
2022/07/14 08:49:51;;;;;;;8.70;3.92;;;25.80;99.90;;;;;;5032242;28;20655;-67
2022/07/14 08:52:17;;;;;;;7.20;4.22;;;26.20;99.90;;;;;;5035257;28;20269;-66
2022/07/14 08:54:46;;;;;;;8.57;4.32;;;26.50;99.90;;;;;;5046666;28;20175;-67
2022/07/14 08:57:12;;;;;;;9.60;4.43;;;26.60;99.90;;;;;;5033150;28;20191;-67
2022/07/14 08:59:38;;;;;;;7.15;3.97;;;26.40;99.90;;;;;;5039767;28;20178;-66
2022/07/14 09:02:04;;;;;;;6.18;4.03;;;26.50;99.90;;;;;;5052207;28;20262;-67
2022/07/14 09:04:30;;;;;;;6.32;4.03;;;26.20;99.90;;;;;;5045493;28;20649;-66
2022/07/14 09:06:56;;;;;;;9.13;4.50;;;26.20;99.90;;;;;;5031876;28;20191;-67
2022/07/14 09:09:24;;;;;;;7.63;4.55;;;26.30;99.90;;;;;;5029727;28;20186;-66
2022/07/14 09:11:55;;;;;;;9.40;4.20;;;26.40;99.90;;;;;;5032325;28;20179;-67
2022/07/14 09:14:21;;;;;;;9.75;4.60;;;26.50;99.90;;;;;;5043594;28;20269;-66
2022/07/14 09:16:47;;;;;;;9.38;5.35;;;26.40;99.90;;;;;;5051720;28;20210;-66
2022/07/14 09:19:15;;;;;;;11.02;4.25;;;26.20;99.90;;;;;;5040013;28;20183;-67
2022/07/14 09:21:45;;;;;;;6.80;4.50;;;26.30;99.90;;;;;;5031716;28;20660;-66
2022/07/14 09:24:14;;;;;;;10.65;4.88;;;26.30;99.90;;;;;;5044540;28;20209;-67
2022/07/14 09:26:51;;;;;;;9.88;4.93;;;25.90;99.90;;;;;;5051320;28;20202;-66
2022/07/14 09:29:27;;;;;;;5.25;4.05;;;25.90;99.90;;;;;;5037735;28;20183;-66
2022/07/14 09:31:52;;;;;;;7.85;5.13;;;25.70;99.90;;;;;;5031717;28;20571;-66
2022/07/14 09:34:38;;;;;;;10.27;4.97;;;25.70;99.90;;;;;;5044832;28;20174;-66
2022/07/14 09:37:11;;;;;;;12.48;5.53;;;25.90;99.90;;;;;;5050148;28;20287;-66
2022/07/14 09:39:53;;;;;;;15.15;5.07;;;25.70;99.90;;;;;;5035386;28;20179;-67
2022/07/14 09:42:19;;;;;;;7.03;4.65;;;26.10;99.90;;;;;;5031551;28;20179;-67
2022/07/14 09:44:45;;;;;;;6.70;5.05;;;26.30;99.90;;;;;;5047159;28;20187;-66
2022/07/14 09:47:11;;;;;;;9.25;4.93;;;26.40;99.90;;;;;;5051101;28;20213;-66
2022/07/14 09:49:37;;;;;;;6.28;3.95;;;26.60;99.90;;;;;;5036487;28;20258;-66
2022/07/14 09:52:02;;;;;;;6.68;3.80;;;26.70;99.90;;;;;;5042899;28;20179;-66
2022/07/14 09:54:37;;;;;;;5.55;4.28;;;26.80;99.90;;;;;;5050888;28;20177;-66
2022/07/14 09:57:27;;;;;;;6.45;3.88;;;26.90;99.90;;;;;;5041850;28;20204;-67
2022/07/14 09:59:55;;;;;;;5.72;4.70;;;27.00;99.90;;;;;;5034883;28;20190;-66
2022/07/14 10:02:30;;;;;;;5.82;4.97;;;26.50;99.90;;;;;;5044447;28;20714;-66
2022/07/14 10:05:01;;;;;;;4.50;3.97;;;26.60;99.90;;;;;;5050855;28;20200;-66
2022/07/14 10:07:32;;;;;;;6.75;4.07;;;26.40;99.90;;;;;;5037271;28;20199;-66
2022/07/14 10:10:00;;;;;;;6.38;4.03;;;26.10;99.90;;;;;;5031336;28;20171;-66
2022/07/14 10:12:26;;;;;;;4.47;4.05;;;25.90;99.90;;;;;;5043111;28;20181;-66
2022/07/14 10:14:53;;;;;;;7.88;4.70;;;25.90;99.90;;;;;;5040830;28;20211;-66
2022/07/14 10:17:19;;;;;;;10.00;4.82;;;26.00;99.90;;;;;;5031177;28;20204;-66
2022/07/14 10:19:46;;;;;;;5.38;4.13;;;26.30;99.90;;;;;;5043024;28;20177;-66
2022/07/14 10:22:13;;;;;;;10.40;4.95;;;26.30;99.90;;;;;;5055419;28;20178;-66
2022/07/14 10:24:40;;;;;;;7.35;4.55;;;25.90;99.90;;;;;;5052516;28;20178;-66
2022/07/14 10:27:06;;;;;;;5.20;4.70;;;26.00;99.90;;;;;;5054732;28;20703;-66
2022/07/14 10:29:32;;;;;;;8.98;3.97;;;25.90;99.90;;;;;;5044543;28;20214;-66
2022/07/14 10:32:36;;;;;;;7.80;5.38;;;26.10;99.90;;;;;;5034934;28;20637;-66
2022/07/14 10:35:21;;;;;;;7.45;4.85;;;26.10;99.90;;;;;;5048201;28;20547;-67
2022/07/14 10:38:13;;;;;;;4.70;3.95;;;26.30;99.90;;;;;;5054310;28;20210;-66
2022/07/14 10:40:47;;;;;;;8.55;4.70;;;26.50;99.90;;;;;;5039386;28;20265;-66
2022/07/14 10:43:17;;;;;;;7.00;4.07;;;26.80;99.90;;;;;;5034689;28;20600;-66
2022/07/14 10:45:56;;;;;;;4.50;4.05;;;27.00;99.90;;;;;;5032973;28;20176;-66
2022/07/14 10:48:32;;;;;;;8.27;4.22;;;27.30;99.90;;;;;;5034567;28;20199;-66
2022/07/14 10:51:18;;;;;;;7.85;4.60;;;27.50;99.90;;;;;;5035541;28;20179;-66
2022/07/14 10:53:58;;;;;;;7.93;4.15;;;27.90;99.90;;;;;;5034414;28;20623;-67
2022/07/14 10:56:28;;;;;;;6.07;3.50;;;28.20;99.90;;;;;;5054364;28;20197;-67
2022/07/14 10:59:32;;;;;;;4.90;3.67;;;28.30;99.90;;;;;;5052930;28;20171;-67
2022/07/14 11:02:13;;;;;;;5.88;3.80;;;28.40;99.90;;;;;;5032702;28;20243;-66
2022/07/14 11:04:59;;;;;;;6.07;3.75;;;28.10;99.90;;;;;;5040514;28;20195;-67
2022/07/14 11:07:38;;;;;;;5.93;4.00;;;28.00;99.90;;;;;;5054082;28;20285;-66
2022/07/14 11:10:25;;;;;;;5.57;3.40;;;28.00;99.90;;;;;;5044233;28;20590;-67
2022/07/14 11:13:03;;;;;;;3.78;3.47;;;28.00;99.90;;;;;;5034206;28;20250;-66
2022/07/14 11:15:41;;;;;;;4.78;3.63;;;28.10;97.90;;;;;;5046283;28;20236;-66
2022/07/14 11:18:20;;;;;;;5.75;3.72;;;28.00;96.90;;;;;;5054226;28;20562;-67
2022/07/14 11:21:03;;;;;;;4.18;3.80;;;28.10;97.60;;;;;;5039673;28;20237;-66
2022/07/14 11:23:49;;;;;;;3.92;3.53;;;28.20;96.80;;;;;;5033714;28;20592;-66
2022/07/14 11:26:46;;;;;;;4.13;3.70;;;28.60;97.50;;;;;;5051414;28;20210;-66
2022/07/14 11:29:13;;;;;;;4.50;3.58;;;28.70;95.20;;;;;;5052220;28;20233;-66
2022/07/14 11:31:57;;;;;;;5.72;3.13;;;28.60;97.20;;;;;;5053581;28;20179;-67
2022/07/14 11:37:13;;;;;;;7.30;3.47;;;28.40;97.50;;;;;;5018554;28;20218;-66
2022/07/14 11:39:41;;;;;;;3.25;3.05;;;28.40;97.40;;;;;;5053599;28;20175;-66
2022/07/14 11:42:11;;;;;;;4.32;3.50;;;28.30;97.90;;;;;;5052393;28;20167;-67
2022/07/14 11:44:40;;;;;;;4.32;3.90;;;28.30;99.20;;;;;;5032161;28;20237;-66
2022/07/14 11:47:08;;;;;;;3.83;3.30;;;28.50;99.90;;;;;;5033475;28;20199;-67
2022/07/14 11:49:35;;;;;;;5.00;3.83;;;28.70;99.70;;;;;;5053374;28;20228;-66
2022/07/14 11:52:03;;;;;;;4.88;3.40;;;28.70;97.80;;;;;;5053446;28;20710;-66
2022/07/14 11:54:29;;;;;;;5.60;3.50;;;28.60;97.40;;;;;;5033170;28;20179;-66
2022/07/14 11:57:03;;;;;;;5.85;3.92;;;28.70;97.50;;;;;;5033283;28;20194;-66
2022/07/14 11:59:29;;;;;;;3.58;3.28;;;28.10;97.80;;;;;;5050599;28;20178;-67
2022/07/14 12:02:08;;;;;;;4.40;3.72;;;27.70;96.90;;;;;;5036139;28;20186;-67
2022/07/14 12:04:34;;;;;;;4.80;4.18;;;27.40;97.90;;;;;;5033017;28;20175;-66
2022/07/14 12:07:00;;;;;;;4.05;3.17;;;27.30;98.80;;;;;;5049774;28;20187;-66
2022/07/14 12:09:30;;;;;;;6.57;3.80;;;27.30;98.60;;;;;;5053051;28;20519;-66
2022/07/14 12:11:56;;;;;;;4.18;3.88;;;27.60;97.60;;;;;;5036941;28;20199;-66
2022/07/14 12:14:22;;;;;;;4.93;3.03;;;28.20;99.60;;;;;;5043347;28;20652;-66
2022/07/14 12:16:47;;;;;;;3.35;3.05;;;28.90;99.90;;;;;;5052312;28;20615;-66
2022/07/14 12:19:13;;;;;;;4.85;3.85;;;29.30;96.40;;;;;;5042397;28;20171;-66
2022/07/14 12:21:39;;;;;;;4.40;3.70;;;29.30;97.40;;;;;;5032821;28;20226;-66
2022/07/14 12:24:06;;;;;;;3.47;3.05;;;29.10;95.70;;;;;;5033924;28;20172;-66
2022/07/14 12:26:33;;;;;;;4.32;3.30;;;28.90;97.50;;;;;;5032659;28;20192;-66
2022/07/14 12:29:02;;;;;;;3.75;3.50;;;29.20;97.70;;;;;;5042187;28;20209;-66
2022/07/14 12:31:28;;;;;;;7.07;3.50;;;29.20;96.50;;;;;;5052569;28;20226;-67
2022/07/14 12:33:58;;;;;;;4.32;3.92;;;29.30;96.60;;;;;;5035451;28;20577;-67
2022/07/14 12:36:26;;;;;;;3.80;3.38;;;28.90;95.90;;;;;;5032500;28;20233;-67
2022/07/14 12:38:53;;;;;;;4.47;3.55;;;28.80;98.20;;;;;;5044599;28;20170;-66
2022/07/14 12:41:24;;;;;;;4.03;3.67;;;28.90;98.80;;;;;;5052089;28;20521;-66
2022/07/14 12:43:51;;;;;;;3.88;3.47;;;28.90;96.40;;;;;;5040763;28;20179;-66
2022/07/14 12:46:19;;;;;;;3.53;3.20;;;29.30;98.00;;;;;;5043034;28;20565;-66
2022/07/14 12:48:51;;;;;;;4.72;3.50;;;29.50;96.60;;;;;;5033465;28;20218;-66
2022/07/14 12:51:23;;;;;;;4.85;3.92;;;29.60;96.70;;;;;;5044475;28;20171;-66